Terminal Aerodrome Forecast
Issued by NWS

Home | Current Version | Previous Version | Text Only | Print | Product List | Glossary On
Versions: 1 2 3 4 5 6 7 8 9 10 11 12 13 14 15 16 17 18 19 20 21 22 23 24 25
000
FTUS42 KMFL 232342
TAFFXE
TAF
KFXE 232342Z 2400/2424 07018G28KT P6SM VCSH SCT020 BKN050
      TEMPO 2400/2403 -TSRA BKN025CB
     FM241300 08020G30KT P6SM FEW025 BKN050=

USA.gov is the U.S. government's official web portal to all federal, state and local government web resources and services.